Time;durP1;ratioP1;P1;durP2;ratioP2;P2;SDS_P1;SDS_P2;PMS_P1;PMS_P2;Temp;Humidity;BMP_temperature;BMP_pressure;BME280_temperature;BME280_humidity;BME280_pressure;Samples;Min_cycle;Max_cycle;Signal;HPM_P1;HPM_P2
2021/04/21 00:02:19;;;;;;;19.85;11.13;;;23.40;37.90;;;;;;6200889;28;82996;-65
2021/04/21 00:05:19;;;;;;;24.23;12.60;;;23.40;37.50;;;;;;6197473;28;83446;-66
2021/04/21 00:08:20;;;;;;;22.45;13.30;;;23.40;37.40;;;;;;6205664;28;84366;-65
2021/04/21 00:11:21;;;;;;;19.00;11.38;;;23.40;37.50;;;;;;6203273;27;83258;-65
2021/04/21 00:14:21;;;;;;;20.00;11.95;;;23.40;37.50;;;;;;6213779;27;85408;-65
2021/04/21 00:17:22;;;;;;;25.92;11.82;;;23.40;37.60;;;;;;6196985;28;83267;-65
2021/04/21 00:20:23;;;;;;;19.98;11.85;;;23.30;37.30;;;;;;6177475;28;84253;-66
2021/04/21 00:23:23;;;;;;;18.92;11.75;;;23.30;37.40;;;;;;6223775;28;82936;-66
2021/04/21 00:26:24;;;;;;;21.80;12.68;;;23.30;37.90;;;;;;6202767;28;83438;-66
2021/04/21 00:29:24;;;;;;;20.27;11.77;;;23.30;37.50;;;;;;6191094;28;83349;-66
2021/04/21 00:32:25;;;;;;;19.58;11.32;;;23.30;37.50;;;;;;6203358;28;84376;-65
2021/04/21 00:35:26;;;;;;;19.42;12.18;;;23.30;37.70;;;;;;6198002;28;83273;-65
2021/04/21 00:38:27;;;;;;;21.35;11.75;;;23.30;37.50;;;;;;6202368;28;83262;-66
2021/04/21 00:41:28;;;;;;;20.48;12.15;;;23.30;37.30;;;;;;6206850;27;84666;-65
2021/04/21 00:44:28;;;;;;;18.13;10.95;;;23.30;37.00;;;;;;6205608;28;82989;-65
2021/04/21 00:47:29;;;;;;;19.95;12.32;;;23.30;37.50;;;;;;6218408;28;82993;-66
2021/04/21 00:50:29;;;;;;;21.42;11.90;;;23.30;37.30;;;;;;6214006;27;83433;-66
2021/04/21 00:53:30;;;;;;;21.25;11.88;;;23.30;37.40;;;;;;6195461;27;85454;-65
2021/04/21 00:56:35;;;;;;;21.73;12.13;;;23.30;37.50;;;;;;6179957;27;84993;-66
2021/04/21 00:59:35;;;;;;;19.65;11.65;;;23.30;37.40;;;;;;6201052;28;83686;-66
2021/04/21 01:02:36;;;;;;;19.23;11.90;;;23.30;37.60;;;;;;6200172;27;85889;-66
2021/04/21 01:05:37;;;;;;;18.63;11.40;;;23.30;37.50;;;;;;6200598;28;84497;-66
2021/04/21 01:08:39;;;;;;;24.15;11.77;;;23.30;37.70;;;;;;6220251;28;86100;-67
2021/04/21 01:11:40;;;;;;;21.27;12.15;;;23.30;37.40;;;;;;6218468;28;85201;-66
2021/04/21 01:14:41;;;;;;;19.70;12.20;;;23.30;37.10;;;;;;6215588;28;84003;-66
2021/04/21 01:17:42;;;;;;;20.83;12.82;;;23.30;37.70;;;;;;6199238;28;83259;-66
2021/04/21 01:20:43;;;;;;;18.85;11.25;;;23.30;38.10;;;;;;6191448;28;84014;-66
2021/04/21 01:23:43;;;;;;;21.85;12.18;;;23.30;37.80;;;;;;6203880;28;82956;-66
2021/04/21 01:26:44;;;;;;;19.00;11.90;;;23.30;37.50;;;;;;6202517;27;85821;-65
2021/04/21 01:29:44;;;;;;;23.00;13.05;;;23.30;37.50;;;;;;6198260;28;84339;-65
2021/04/21 01:32:45;;;;;;;23.35;12.55;;;23.30;37.70;;;;;;6195741;28;83077;-65
2021/04/21 01:35:45;;;;;;;21.70;12.35;;;23.30;37.50;;;;;;6195771;28;83146;-65
2021/04/21 01:38:46;;;;;;;21.27;12.13;;;23.30;37.70;;;;;;6199297;28;83258;-65
2021/04/21 01:41:46;;;;;;;17.33;11.60;;;23.30;37.80;;;;;;6198455;28;83273;-65
2021/04/21 01:44:47;;;;;;;23.67;12.95;;;23.30;37.00;;;;;;6217151;28;83291;-65
2021/04/21 01:47:48;;;;;;;22.15;12.63;;;23.30;36.90;;;;;;6220570;28;86426;-66
2021/04/21 01:50:49;;;;;;;18.73;12.02;;;23.30;37.10;;;;;;6218524;27;85447;-65
2021/04/21 01:53:50;;;;;;;23.13;12.35;;;23.30;37.20;;;;;;6198432;27;84351;-65
2021/04/21 01:56:51;;;;;;;21.70;12.20;;;23.30;37.20;;;;;;6212225;28;83248;-65
2021/04/21 01:59:51;;;;;;;20.05;12.13;;;23.30;37.10;;;;;;6197329;28;86341;-66
2021/04/21 02:02:52;;;;;;;22.20;12.50;;;23.30;37.10;;;;;;6192865;28;86128;-66
2021/04/21 02:05:52;;;;;;;22.90;12.98;;;23.30;37.30;;;;;;6191406;28;83248;-66
2021/04/21 02:08:53;;;;;;;24.98;13.77;;;23.30;37.20;;;;;;6201700;27;84544;-65
2021/04/21 02:11:53;;;;;;;23.35;13.35;;;23.30;37.00;;;;;;6192774;27;84032;-66
2021/04/21 02:14:54;;;;;;;22.80;13.45;;;23.20;37.30;;;;;;6189918;27;82978;-66
2021/04/21 02:17:55;;;;;;;22.17;13.13;;;23.30;37.30;;;;;;6199727;28;84523;-65
2021/04/21 02:20:55;;;;;;;18.85;12.18;;;23.30;37.30;;;;;;6190321;28;83946;-65
2021/04/21 02:23:56;;;;;;;22.70;13.15;;;23.20;37.10;;;;;;6199818;28;83344;-66
2021/04/21 02:26:56;;;;;;;25.40;14.48;;;23.20;37.50;;;;;;6214779;27;84063;-66
2021/04/21 02:29:57;;;;;;;22.48;13.75;;;23.20;37.00;;;;;;6209699;28;84606;-65
2021/04/21 02:32:58;;;;;;;21.88;14.27;;;23.20;37.50;;;;;;6205708;28;83132;-66
2021/04/21 02:35:59;;;;;;;23.48;13.77;;;23.20;37.70;;;;;;6190641;28;83497;-66
2021/04/21 02:38:59;;;;;;;20.05;12.88;;;23.30;37.70;;;;;;6191503;28;83368;-64
2021/04/21 02:42:00;;;;;;;25.45;14.13;;;23.30;37.30;;;;;;6201126;28;83687;-64
2021/04/21 02:45:00;;;;;;;24.60;13.65;;;23.30;37.50;;;;;;6194681;28;83219;-65
2021/04/21 02:48:01;;;;;;;23.83;13.23;;;23.30;37.70;;;;;;6191093;28;83498;-66
2021/04/21 02:51:01;;;;;;;24.27;13.77;;;23.30;37.40;;;;;;6194442;28;84170;-65
2021/04/21 02:54:02;;;;;;;24.45;13.73;;;23.30;37.50;;;;;;6216325;27;83123;-66
2021/04/21 02:57:02;;;;;;;21.88;12.75;;;23.30;37.50;;;;;;6202363;28;82891;-66
2021/04/21 03:00:03;;;;;;;27.33;15.00;;;23.30;37.40;;;;;;6226075;27;83526;-65
2021/04/21 03:03:04;;;;;;;23.15;13.57;;;23.30;37.50;;;;;;6218249;28;82958;-67
2021/04/21 03:06:04;;;;;;;26.92;14.40;;;23.30;37.10;;;;;;6200619;28;82915;-67
2021/04/21 03:09:05;;;;;;;24.98;13.38;;;23.20;37.20;;;;;;6216337;28;84450;-66
2021/04/21 03:12:05;;;;;;;19.60;12.90;;;23.20;37.70;;;;;;6206045;28;84127;-66
2021/04/21 03:15:06;;;;;;;24.33;13.50;;;23.20;37.60;;;;;;6186830;28;84409;-66
2021/04/21 03:18:06;;;;;;;22.55;13.00;;;23.20;37.40;;;;;;6202900;28;83886;-66
2021/04/21 03:21:07;;;;;;;26.70;14.43;;;23.20;37.30;;;;;;6210723;28;83672;-66
2021/04/21 03:24:07;;;;;;;23.42;13.80;;;23.20;37.60;;;;;;6224927;27;83470;-66
2021/04/21 03:27:08;;;;;;;26.30;14.60;;;23.20;37.20;;;;;;6223788;27;83752;-66
2021/04/21 03:30:08;;;;;;;23.13;14.18;;;23.20;37.10;;;;;;6225262;27;85964;-66
2021/04/21 03:33:09;;;;;;;25.70;14.05;;;23.20;36.40;;;;;;6222091;28;83357;-66
2021/04/21 03:36:10;;;;;;;23.92;13.82;;;23.30;36.10;;;;;;6239167;28;84617;-66
2021/04/21 03:39:11;;;;;;;22.45;13.40;;;23.20;35.90;;;;;;6219530;27;83448;-66
2021/04/21 03:42:11;;;;;;;24.27;13.80;;;23.20;36.20;;;;;;6195617;28;83267;-65
2021/04/21 03:45:12;;;;;;;21.55;12.80;;;23.20;36.30;;;;;;6213849;27;84091;-65
2021/04/21 03:48:12;;;;;;;21.60;12.45;;;23.20;36.20;;;;;;6234004;27;82919;-66
2021/04/21 03:51:13;;;;;;;23.48;13.07;;;23.20;36.20;;;;;;6209166;28;83623;-65
2021/04/21 03:54:14;;;;;;;21.85;13.00;;;23.20;36.20;;;;;;6205303;28;87577;-65
2021/04/21 03:57:14;;;;;;;23.88;13.93;;;23.20;36.10;;;;;;6202757;28;84088;-65
2021/04/21 04:00:15;;;;;;;23.27;13.80;;;23.20;36.20;;;;;;6192149;28;82910;-65
2021/04/21 04:03:15;;;;;;;25.70;14.57;;;23.20;36.30;;;;;;6206098;28;84186;-63
2021/04/21 04:06:16;;;;;;;22.48;12.43;;;23.10;36.30;;;;;;6207847;28;83226;-66
2021/04/21 04:09:17;;;;;;;20.30;12.23;;;23.30;36.40;;;;;;6202048;28;83778;-64
2021/04/21 04:12:17;;;;;;;22.33;13.18;;;23.20;36.40;;;;;;6197823;28;83542;-65
2021/04/21 04:15:18;;;;;;;19.25;11.30;;;23.20;36.30;;;;;;6200079;28;82986;-62
2021/04/21 04:18:18;;;;;;;20.20;12.10;;;23.30;36.70;;;;;;6199794;28;83392;-66
2021/04/21 04:21:20;;;;;;;19.58;12.20;;;23.30;36.80;;;;;;6198427;27;84186;-65
2021/04/21 04:24:21;;;;;;;17.33;10.82;;;23.30;36.70;;;;;;6222138;27;83249;-65
2021/04/21 04:27:21;;;;;;;20.90;12.45;;;23.30;36.60;;;;;;6199016;28;84113;-65
2021/04/21 04:30:22;;;;;;;20.67;11.52;;;23.30;36.70;;;;;;6203832;28;84336;-65
2021/04/21 04:33:22;;;;;;;18.77;11.57;;;23.20;36.70;;;;;;6204963;28;83297;-64
2021/04/21 04:36:23;;;;;;;18.17;11.57;;;23.30;36.80;;;;;;6227146;27;83302;-64
2021/04/21 04:39:23;;;;;;;20.70;11.70;;;23.30;36.70;;;;;;6223440;27;83074;-64
2021/04/21 04:42:24;;;;;;;18.42;11.48;;;23.30;36.60;;;;;;6189835;28;83131;-64
2021/04/21 04:45:24;;;;;;;21.73;12.10;;;23.30;36.60;;;;;;6226848;28;84087;-64
2021/04/21 04:48:25;;;;;;;21.05;11.63;;;23.30;36.70;;;;;;6223397;28;84359;-64
2021/04/21 04:51:25;;;;;;;23.42;12.73;;;23.30;37.30;;;;;;6202520;28;83709;-64
2021/04/21 04:54:26;;;;;;;21.15;11.77;;;23.40;37.50;;;;;;6200324;28;83199;-63
2021/04/21 04:57:26;;;;;;;22.30;12.93;;;23.40;38.20;;;;;;6194910;28;84187;-64
2021/04/21 05:00:27;;;;;;;24.98;13.15;;;23.40;38.70;;;;;;6202706;28;83348;-65
2021/04/21 05:03:28;;;;;;;21.08;12.50;;;23.40;39.00;;;;;;6193815;28;84102;-63
2021/04/21 05:06:28;;;;;;;22.27;12.82;;;23.40;39.20;;;;;;6192696;28;82891;-63
2021/04/21 05:09:29;;;;;;;25.50;14.43;;;23.40;39.80;;;;;;6202662;28;84290;-64
2021/04/21 05:12:29;;;;;;;22.38;13.40;;;23.40;40.10;;;;;;6202057;28;83858;-63
2021/04/21 05:15:30;;;;;;;22.52;13.38;;;23.40;40.60;;;;;;6215849;27;83246;-63
2021/04/21 05:18:31;;;;;;;29.23;14.50;;;23.50;41.00;;;;;;6204018;27;83326;-64
2021/04/21 05:21:31;;;;;;;26.35;13.70;;;23.50;40.90;;;;;;6221762;28;84247;-63
2021/04/21 05:24:32;;;;;;;24.50;13.18;;;23.50;41.30;;;;;;6216415;28;82968;-63
2021/04/21 05:27:32;;;;;;;26.15;13.52;;;23.40;41.50;;;;;;6203887;27;83242;-65
2021/04/21 05:30:33;;;;;;;25.58;12.63;;;23.50;41.50;;;;;;6200217;28;84411;-63
2021/04/21 05:33:33;;;;;;;25.80;13.77;;;23.50;41.60;;;;;;6203157;28;83009;-64
2021/04/21 05:36:34;;;;;;;21.67;12.15;;;23.50;41.30;;;;;;6200558;28;83051;-64
2021/04/21 05:39:34;;;;;;;24.05;12.75;;;23.50;41.10;;;;;;6200493;28;84272;-64
2021/04/21 05:42:38;;;;;;;20.63;11.52;;;23.50;40.80;;;;;;6200201;28;83320;-63
2021/04/21 05:45:38;;;;;;;19.15;10.88;;;23.50;41.40;;;;;;6218322;27;83281;-65
2021/04/21 05:48:39;;;;;;;19.67;10.90;;;23.50;41.20;;;;;;6201559;27;85649;-64
2021/04/21 05:51:39;;;;;;;22.30;12.32;;;23.60;41.10;;;;;;6199025;28;83419;-65
2021/04/21 05:54:40;;;;;;;18.90;10.48;;;23.60;41.00;;;;;;6214399;27;83424;-64
2021/04/21 05:57:41;;;;;;;24.25;10.25;;;23.60;40.50;;;;;;6199795;28;83975;-65
2021/04/21 06:00:41;;;;;;;20.02;10.55;;;23.60;40.00;;;;;;6203005;28;83526;-61
2021/04/21 06:03:42;;;;;;;18.40;10.80;;;23.50;40.40;;;;;;6214548;27;83886;-66
2021/04/21 06:06:42;;;;;;;19.13;11.02;;;23.50;40.80;;;;;;6196209;28;83047;-64
2021/04/21 06:09:43;;;;;;;19.38;10.85;;;23.50;41.00;;;;;;6217079;28;86074;-65
2021/04/21 06:12:43;;;;;;;19.50;11.02;;;23.50;40.80;;;;;;6208246;28;83001;-65
2021/04/21 06:15:44;;;;;;;21.85;10.70;;;23.50;40.50;;;;;;6216373;28;83010;-65
2021/04/21 06:18:44;;;;;;;21.77;11.52;;;23.50;40.60;;;;;;6191477;28;83946;-65
2021/04/21 06:21:45;;;;;;;20.77;11.52;;;23.50;39.80;;;;;;6197996;28;83061;-63
2021/04/21 06:24:45;;;;;;;20.10;11.73;;;23.50;40.40;;;;;;6205161;28;83194;-65
2021/04/21 06:27:46;;;;;;;20.63;12.02;;;23.50;40.30;;;;;;6216053;28;84723;-63
2021/04/21 06:30:46;;;;;;;17.00;10.93;;;23.50;39.50;;;;;;6207224;28;83903;-62
2021/04/21 06:33:47;;;;;;;19.92;10.63;;;23.50;39.60;;;;;;6212214;27;88845;-61
2021/04/21 06:36:49;;;;;;;20.27;11.52;;;23.50;40.90;;;;;;6213368;27;83349;-61
2021/04/21 06:39:50;;;;;;;18.40;10.70;;;23.50;39.80;;;;;;6188990;28;83176;-63
2021/04/21 06:42:51;;;;;;;21.15;11.70;;;23.50;39.80;;;;;;6203024;28;83221;-62
2021/04/21 06:45:52;;;;;;;18.42;10.52;;;23.50;39.80;;;;;;6190327;28;83180;-63
2021/04/21 06:48:53;;;;;;;19.02;10.93;;;23.60;40.00;;;;;;6217770;27;83321;-64
2021/04/21 06:51:53;;;;;;;19.77;10.45;;;23.60;40.10;;;;;;6224509;27;83122;-65
2021/04/21 06:54:54;;;;;;;20.83;11.43;;;23.60;40.00;;;;;;6217926;27;82842;-65
2021/04/21 06:57:54;;;;;;;22.10;11.55;;;23.60;40.80;;;;;;6187137;27;83113;-63
2021/04/21 07:00:55;;;;;;;19.65;9.82;;;23.60;41.20;;;;;;6204818;27;83443;-64
2021/04/21 07:03:55;;;;;;;21.63;11.38;;;23.60;40.90;;;;;;6219381;27;84490;-64
2021/04/21 07:06:56;;;;;;;19.55;10.43;;;23.60;40.80;;;;;;6207050;27;83117;-65
2021/04/21 07:09:57;;;;;;;20.05;11.82;;;23.60;40.30;;;;;;6208616;28;83413;-63
2021/04/21 07:12:57;;;;;;;21.92;11.82;;;23.70;39.70;;;;;;6223285;28;83721;-63
2021/04/21 07:15:58;;;;;;;20.65;12.00;;;23.70;40.40;;;;;;6217884;28;84673;-61
2021/04/21 07:18:58;;;;;;;21.50;12.55;;;23.60;39.70;;;;;;6223166;28;84145;-64
2021/04/21 07:21:59;;;;;;;25.63;13.50;;;23.60;39.40;;;;;;6217539;27;83966;-64
2021/04/21 07:25:00;;;;;;;21.58;13.40;;;23.60;38.80;;;;;;6205817;28;83294;-66
2021/04/21 07:28:00;;;;;;;21.67;13.15;;;23.60;38.60;;;;;;6197947;27;83334;-65
2021/04/21 07:31:00;;;;;;;21.40;13.25;;;23.60;38.30;;;;;;6187061;28;83239;-64
2021/04/21 07:34:01;;;;;;;22.67;12.38;;;23.50;37.90;;;;;;6205708;28;82878;-64
2021/04/21 07:37:02;;;;;;;20.60;12.27;;;23.50;37.80;;;;;;6206988;28;84091;-64
2021/04/21 07:40:02;;;;;;;21.60;12.77;;;23.50;37.70;;;;;;6200681;28;84703;-64
2021/04/21 07:43:03;;;;;;;18.85;12.00;;;23.50;37.60;;;;;;6201756;28;83601;-64
2021/04/21 07:46:03;;;;;;;22.42;12.27;;;23.50;37.40;;;;;;6198076;28;83267;-64
2021/04/21 07:49:04;;;;;;;21.70;12.20;;;23.50;37.30;;;;;;6201248;28;83273;-64
2021/04/21 07:52:04;;;;;;;25.70;12.43;;;23.50;37.20;;;;;;6190084;28;83332;-64
2021/04/21 07:55:05;;;;;;;24.98;13.13;;;23.50;37.20;;;;;;6202457;28;84598;-64
2021/04/21 07:58:06;;;;;;;21.73;11.98;;;23.50;37.00;;;;;;6206662;27;83811;-64
2021/04/21 08:01:07;;;;;;;22.20;12.00;;;23.50;37.10;;;;;;6205016;28;86428;-64
2021/04/21 08:04:07;;;;;;;22.27;11.77;;;23.50;37.10;;;;;;6212487;28;83673;-64
2021/04/21 08:07:08;;;;;;;23.02;11.75;;;23.60;36.70;;;;;;6195865;28;83147;-64
2021/04/21 08:10:08;;;;;;;18.80;11.32;;;23.60;36.20;;;;;;6189532;28;83570;-64
2021/04/21 08:13:10;;;;;;;17.45;10.50;;;23.60;36.00;;;;;;6198418;28;85612;-64
2021/04/21 08:16:10;;;;;;;20.00;10.80;;;23.60;35.90;;;;;;6194472;28;83265;-64
2021/04/21 08:19:11;;;;;;;18.67;10.75;;;23.60;35.70;;;;;;6193414;28;85626;-64
2021/04/21 08:22:11;;;;;;;18.75;10.75;;;23.60;35.50;;;;;;6193290;28;83333;-65
2021/04/21 08:25:12;;;;;;;18.35;10.70;;;23.60;36.10;;;;;;6193538;28;85492;-64
2021/04/21 08:28:12;;;;;;;13.45;9.45;;;23.50;35.40;;;;;;6196205;28;83751;-64
2021/04/21 08:31:13;;;;;;;18.05;10.52;;;23.60;35.40;;;;;;6199601;28;83750;-64
2021/04/21 08:34:13;;;;;;;14.80;9.02;;;23.60;35.40;;;;;;6203615;27;82859;-64
2021/04/21 08:37:14;;;;;;;14.63;9.68;;;23.50;35.30;;;;;;6193857;27;82996;-64
2021/04/21 08:40:15;;;;;;;15.48;9.43;;;23.50;35.30;;;;;;6205825;27;80341;-64
2021/04/21 08:43:15;;;;;;;14.27;8.95;;;23.50;35.20;;;;;;6204100;28;81272;-64
2021/04/21 08:46:16;;;;;;;12.93;8.88;;;23.50;35.10;;;;;;6201874;28;80912;-64
2021/04/21 08:49:16;;;;;;;12.88;8.63;;;23.50;35.10;;;;;;6204582;27;80330;-64
2021/04/21 08:52:17;;;;;;;15.07;9.50;;;23.50;35.10;;;;;;6223795;27;82238;-64
2021/04/21 08:55:17;;;;;;;17.15;9.55;;;23.60;35.10;;;;;;6212460;27;80325;-64
2021/04/21 08:58:18;;;;;;;14.60;9.70;;;23.50;35.00;;;;;;6206593;28;81689;-64
2021/04/21 09:01:18;;;;;;;16.73;10.50;;;23.50;35.00;;;;;;6204378;28;80601;-64
2021/04/21 09:04:19;;;;;;;15.35;8.82;;;23.50;34.90;;;;;;6196439;28;83272;-64
2021/04/21 09:07:19;;;;;;;15.43;9.57;;;23.50;34.90;;;;;;6205381;27;82816;-64
2021/04/21 09:10:20;;;;;;;16.90;9.48;;;23.50;34.90;;;;;;6206494;28;80551;-64
2021/04/21 09:13:20;;;;;;;14.43;9.10;;;23.50;34.90;;;;;;6208160;28;83259;-64
2021/04/21 09:16:21;;;;;;;20.10;9.65;;;23.60;35.00;;;;;;6207496;28;80974;-62
2021/04/21 09:19:22;;;;;;;13.25;8.73;;;23.50;35.00;;;;;;6203679;28;80253;-62
2021/04/21 09:22:24;;;;;;;15.20;9.20;;;23.50;35.10;;;;;;6210448;28;80959;-62
2021/04/21 09:25:25;;;;;;;17.17;10.07;;;23.50;35.20;;;;;;6220968;27;80411;-66
2021/04/21 09:28:26;;;;;;;20.15;9.77;;;23.60;35.30;;;;;;6214231;27;83207;-65
2021/04/21 09:31:26;;;;;;;17.58;9.43;;;23.60;35.50;;;;;;6208494;27;82998;-66
2021/04/21 09:34:27;;;;;;;14.07;8.98;;;23.60;35.60;;;;;;6219935;27;88698;-65
2021/04/21 09:37:27;;;;;;;23.20;10.27;;;23.60;35.60;;;;;;6202343;28;81671;-65
2021/04/21 09:40:28;;;;;;;15.85;8.88;;;23.60;35.70;;;;;;6192814;28;85622;-65
2021/04/21 09:43:28;;;;;;;19.63;10.07;;;23.60;35.70;;;;;;6211557;28;83134;-67
2021/04/21 09:46:29;;;;;;;15.65;8.98;;;23.60;35.70;;;;;;6206905;28;82899;-66
2021/04/21 09:49:29;;;;;;;16.75;10.20;;;23.70;35.80;;;;;;6209866;28;83583;-66
2021/04/21 09:52:30;;;;;;;17.05;9.88;;;23.70;35.80;;;;;;6197336;28;83280;-66
2021/04/21 09:55:30;;;;;;;13.73;9.13;;;23.70;35.80;;;;;;6203541;28;83517;-64
2021/04/21 09:58:31;;;;;;;15.05;9.13;;;23.70;35.90;;;;;;6216128;28;81100;-66
2021/04/21 10:01:32;;;;;;;16.02;9.07;;;23.70;35.60;;;;;;6196592;28;80646;-66
2021/04/21 10:04:32;;;;;;;14.90;8.75;;;23.80;35.70;;;;;;6199156;28;80570;-66
2021/04/21 10:07:33;;;;;;;18.15;9.18;;;23.80;35.70;;;;;;6205729;28;82902;-66
2021/04/21 10:10:34;;;;;;;15.45;9.10;;;23.80;35.60;;;;;;6221707;27;81742;-66
2021/04/21 10:13:34;;;;;;;17.83;9.23;;;23.80;35.80;;;;;;6204149;28;81408;-66
2021/04/21 10:16:35;;;;;;;19.40;10.95;;;23.80;35.60;;;;;;6206387;28;80511;-65
2021/04/21 10:19:35;;;;;;;20.92;11.75;;;23.80;35.80;;;;;;6198950;28;83198;-66
2021/04/21 10:22:36;;;;;;;22.20;11.50;;;23.90;35.80;;;;;;6211163;28;83131;-67
2021/04/21 10:25:36;;;;;;;13.93;9.40;;;23.60;33.60;;;;;;6211202;28;83013;-66
2021/04/21 10:28:37;;;;;;;13.80;8.57;;;23.10;32.30;;;;;;6192318;28;85126;-67
2021/04/21 10:31:38;;;;;;;17.23;9.85;;;22.90;33.00;;;;;;6206187;28;81422;-66
2021/04/21 10:34:38;;;;;;;19.80;11.15;;;23.10;33.80;;;;;;6200595;28;81037;-65
2021/04/21 10:37:39;;;;;;;13.55;9.77;;;23.20;33.30;;;;;;6195105;28;83645;-65
2021/04/21 10:40:40;;;;;;;11.60;8.02;;;23.00;32.70;;;;;;6227616;28;83637;-65
2021/04/21 10:43:41;;;;;;;14.63;10.38;;;23.00;33.50;;;;;;6226238;27;80864;-65
2021/04/21 10:46:42;;;;;;;17.33;9.85;;;22.80;32.80;;;;;;6196897;28;82975;-67
2021/04/21 10:49:42;;;;;;;13.35;8.85;;;22.60;33.20;;;;;;6212762;28;83082;-66
2021/04/21 10:52:43;;;;;;;20.48;9.88;;;22.80;34.10;;;;;;6205934;28;80245;-66
2021/04/21 10:55:43;;;;;;;12.70;8.65;;;22.80;33.60;;;;;;6198447;28;81356;-66
2021/04/21 10:58:44;;;;;;;12.02;7.13;;;22.70;33.30;;;;;;6196470;28;80408;-66
2021/04/21 11:01:45;;;;;;;11.82;5.95;;;22.70;33.40;;;;;;6200017;28;80426;-66
2021/04/21 11:04:45;;;;;;;13.40;6.80;;;22.80;34.50;;;;;;6193118;28;80924;-66
2021/04/21 11:07:46;;;;;;;9.68;6.57;;;22.90;34.70;;;;;;6197828;28;80376;-65
2021/04/21 11:10:47;;;;;;;7.53;5.80;;;22.70;33.80;;;;;;6207601;28;80439;-65
2021/04/21 11:13:47;;;;;;;13.45;6.50;;;22.40;34.40;;;;;;6223997;28;82668;-66
2021/04/21 11:16:48;;;;;;;10.85;6.55;;;22.20;34.10;;;;;;6210235;28;81335;-65
2021/04/21 11:19:48;;;;;;;9.20;6.38;;;22.10;34.70;;;;;;6198421;28;80623;-65
2021/04/21 11:22:49;;;;;;;8.40;6.30;;;22.20;34.50;;;;;;6193353;28;80662;-66
2021/04/21 11:25:49;;;;;;;8.40;5.40;;;22.20;35.20;;;;;;6210148;28;81215;-66
2021/04/21 11:28:50;;;;;;;10.85;5.60;;;22.40;36.10;;;;;;6225825;28;81666;-67
2021/04/21 11:31:51;;;;;;;8.48;6.50;;;22.50;34.50;;;;;;6210792;28;81784;-65
2021/04/21 11:34:52;;;;;;;10.30;6.72;;;22.30;34.40;;;;;;6213642;28;91101;-65
2021/04/21 11:37:52;;;;;;;9.05;6.13;;;22.50;35.40;;;;;;6205908;28;81748;-66
2021/04/21 11:40:53;;;;;;;9.27;6.07;;;22.50;35.20;;;;;;6200923;28;80951;-65
2021/04/21 11:43:54;;;;;;;8.75;6.35;;;22.60;36.50;;;;;;6205727;27;81236;-65
2021/04/21 11:46:54;;;;;;;9.55;6.43;;;22.70;35.90;;;;;;6205136;28;80871;-63
2021/04/21 11:49:55;;;;;;;9.15;5.90;;;22.60;35.40;;;;;;6217952;28;81605;-65
2021/04/21 11:52:58;;;;;;;8.88;5.75;;;22.60;34.30;;;;;;6215611;28;80474;-65
2021/04/21 11:56:01;;;;;;;6.68;4.85;;;22.60;35.60;;;;;;6204796;28;83271;-66
2021/04/21 11:59:02;;;;;;;12.05;5.95;;;22.70;35.40;;;;;;6201044;28;87024;-68
2021/04/21 12:02:02;;;;;;;6.40;5.47;;;22.70;33.50;;;;;;6207428;28;80665;-66
2021/04/21 12:05:03;;;;;;;8.82;5.68;;;22.30;32.60;;;;;;6200159;28;81485;-65
2021/04/21 12:08:03;;;;;;;8.27;5.65;;;22.00;32.60;;;;;;6206126;28;81352;-66
2021/04/21 12:11:04;;;;;;;6.95;5.03;;;22.10;32.90;;;;;;6196972;27;82302;-68
2021/04/21 12:14:05;;;;;;;9.57;5.25;;;22.30;33.40;;;;;;6204958;28;86497;-68
2021/04/21 12:17:05;;;;;;;9.35;6.13;;;22.50;33.50;;;;;;6198217;27;80415;-67
2021/04/21 12:20:06;;;;;;;9.02;6.20;;;22.50;32.70;;;;;;6215467;28;81082;-67
2021/04/21 12:23:06;;;;;;;8.02;5.57;;;22.40;32.80;;;;;;6242007;27;81883;-66
2021/04/21 12:26:07;;;;;;;8.05;5.30;;;22.40;33.00;;;;;;6210538;27;80930;-66
2021/04/21 12:29:09;;;;;;;7.07;5.28;;;22.50;32.60;;;;;;6203602;28;81085;-65
2021/04/21 12:32:09;;;;;;;11.13;5.70;;;22.50;32.10;;;;;;6235733;28;82674;-65
2021/04/21 12:35:10;;;;;;;6.93;4.75;;;22.30;32.10;;;;;;6215242;27;84221;-66
2021/04/21 12:38:10;;;;;;;6.35;4.80;;;22.30;32.70;;;;;;6200690;28;81605;-64
2021/04/21 12:41:11;;;;;;;10.63;5.13;;;22.60;33.10;;;;;;6214967;28;80618;-65
2021/04/21 12:44:11;;;;;;;6.90;4.95;;;22.70;33.40;;;;;;6193534;28;80187;-65
2021/04/21 12:47:12;;;;;;;8.85;5.85;;;22.80;32.60;;;;;;6202001;28;80962;-65
2021/04/21 12:50:12;;;;;;;10.40;5.43;;;22.80;33.30;;;;;;6221969;28;80491;-64
2021/04/21 12:53:13;;;;;;;9.40;5.28;;;22.80;32.40;;;;;;6227364;27;80322;-65
2021/04/21 12:56:13;;;;;;;8.00;4.78;;;22.90;34.10;;;;;;6210842;27;79984;-64
2021/04/21 12:59:14;;;;;;;7.72;4.75;;;23.00;33.60;;;;;;6201202;28;81660;-64
2021/04/21 13:02:16;;;;;;;5.85;4.40;;;23.00;33.50;;;;;;6207079;28;82130;-64
2021/04/21 13:05:19;;;;;;;5.80;4.18;;;23.10;33.60;;;;;;6204250;28;80837;-65
2021/04/21 13:08:20;;;;;;;6.85;4.25;;;23.10;33.40;;;;;;6211127;28;81493;-65
2021/04/21 13:11:20;;;;;;;6.25;4.75;;;23.10;33.20;;;;;;6208422;28;83343;-65
2021/04/21 13:14:21;;;;;;;7.65;4.45;;;23.20;33.40;;;;;;6217366;28;81335;-66
2021/04/21 13:17:24;;;;;;;7.80;4.50;;;23.20;33.10;;;;;;6223937;27;80531;-65
2021/04/21 13:20:24;;;;;;;5.50;4.35;;;23.20;33.50;;;;;;6226327;27;80356;-65
2021/04/21 13:23:25;;;;;;;8.65;5.00;;;23.20;32.70;;;;;;6228122;27;81576;-64
2021/04/21 13:26:25;;;;;;;11.80;6.40;;;23.20;32.70;;;;;;6220672;27;80755;-64
2021/04/21 13:29:26;;;;;;;9.40;5.90;;;23.20;31.40;;;;;;6222157;28;80574;-64
2021/04/21 13:32:27;;;;;;;10.82;5.85;;;23.10;30.70;;;;;;6212506;27;83111;-64
2021/04/21 13:35:27;;;;;;;9.13;5.72;;;23.10;30.90;;;;;;6209374;28;81697;-64
2021/04/21 13:38:28;;;;;;;9.65;5.18;;;23.10;31.20;;;;;;6182145;27;82020;-64
2021/04/21 13:41:28;;;;;;;12.27;5.45;;;23.20;31.40;;;;;;6207412;28;81177;-64
2021/04/21 13:44:29;;;;;;;12.35;5.00;;;23.20;31.90;;;;;;6211491;28;80682;-64
2021/04/21 13:47:29;;;;;;;7.50;4.95;;;23.20;31.10;;;;;;6239125;27;81670;-65
2021/04/21 13:50:30;;;;;;;9.82;5.22;;;23.20;31.60;;;;;;6222929;28;80982;-64
2021/04/21 13:53:30;;;;;;;12.85;5.20;;;23.20;32.20;;;;;;6208283;28;81480;-65
2021/04/21 13:56:31;;;;;;;8.05;4.43;;;23.30;31.40;;;;;;6216027;27;80648;-65
2021/04/21 13:59:31;;;;;;;7.85;4.60;;;23.30;32.10;;;;;;6215909;28;80591;-65
2021/04/21 14:02:32;;;;;;;7.85;4.60;;;23.30;31.40;;;;;;6220752;28;80799;-65
2021/04/21 14:05:32;;;;;;;5.60;4.70;;;23.30;32.00;;;;;;6219994;28;80377;-65
2021/04/21 14:08:33;;;;;;;6.15;4.70;;;23.30;31.80;;;;;;6221112;27;80714;-65
2021/04/21 14:11:33;;;;;;;5.53;4.32;;;23.30;31.80;;;;;;6217003;28;80808;-64
2021/04/21 14:14:34;;;;;;;7.63;4.38;;;23.30;32.30;;;;;;6204043;27;80314;-64
2021/04/21 14:17:34;;;;;;;8.55;5.10;;;23.30;31.60;;;;;;6199298;28;81419;-64
2021/04/21 14:20:35;;;;;;;8.60;4.85;;;23.30;31.60;;;;;;6192261;28;81397;-64
2021/04/21 14:23:35;;;;;;;11.05;5.25;;;23.30;32.30;;;;;;6204385;28;80418;-65
2021/04/21 14:26:36;;;;;;;11.30;5.78;;;23.20;32.40;;;;;;6210041;28;83366;-65
2021/04/21 14:29:37;;;;;;;8.90;4.78;;;23.30;32.80;;;;;;6220986;28;81650;-65
2021/04/21 14:32:37;;;;;;;11.93;4.93;;;23.20;32.60;;;;;;6194090;28;81051;-65
2021/04/21 14:35:39;;;;;;;8.80;5.00;;;23.20;33.40;;;;;;6206436;28;80266;-65
2021/04/21 14:38:40;;;;;;;12.00;5.45;;;23.20;33.40;;;;;;6204726;27;80247;-65
2021/04/21 14:41:40;;;;;;;7.07;4.55;;;23.20;34.50;;;;;;6209935;28;83119;-65
2021/04/21 14:44:41;;;;;;;7.88;5.10;;;23.20;33.80;;;;;;6207886;28;80654;-64
2021/04/21 14:47:41;;;;;;;7.90;5.25;;;23.20;34.50;;;;;;6204365;28;80387;-63
2021/04/21 14:50:42;;;;;;;13.23;5.32;;;23.20;35.50;;;;;;6202458;28;81371;-64
2021/04/21 14:53:43;;;;;;;9.40;4.80;;;23.20;35.70;;;;;;6199887;28;80427;-64
2021/04/21 14:56:43;;;;;;;9.32;4.80;;;23.20;36.00;;;;;;6221490;28;81474;-65
2021/04/21 14:59:44;;;;;;;9.38;4.50;;;23.20;36.70;;;;;;6212989;27;81456;-64
2021/04/21 15:02:44;;;;;;;6.25;4.47;;;23.20;36.70;;;;;;6199647;28;83197;-64
2021/04/21 15:05:45;;;;;;;12.00;5.70;;;23.20;36.40;;;;;;6200017;28;80403;-64
2021/04/21 15:08:46;;;;;;;10.40;5.10;;;23.20;36.80;;;;;;6195264;28;80829;-64
2021/04/21 15:11:46;;;;;;;9.65;5.47;;;23.20;37.10;;;;;;6217204;28;80632;-63
2021/04/21 15:14:47;;;;;;;7.53;5.25;;;23.20;37.50;;;;;;6200232;28;80221;-64
2021/04/21 15:17:47;;;;;;;10.57;5.35;;;23.10;37.70;;;;;;6203176;28;83164;-65
2021/04/21 15:20:48;;;;;;;7.88;5.68;;;23.10;37.70;;;;;;6213094;28;81980;-65
2021/04/21 15:23:49;;;;;;;11.32;5.22;;;23.00;37.80;;;;;;6214419;28;80404;-64